sensor_id;sensor_type;location;lat;lon;timestamp;temperature;humidity
38854;DHT22;24606;51.992;4.198;2023-07-16T00:03:00;23.60;62.90
38854;DHT22;24606;51.992;4.198;2023-07-16T00:08:02;23.00;62.70
38854;DHT22;24606;51.992;4.198;2023-07-16T00:13:05;22.70;64.60
38854;DHT22;24606;51.992;4.198;2023-07-16T00:18:07;22.40;65.80
38854;DHT22;24606;51.992;4.198;2023-07-16T00:23:08;22.10;66.50
38854;DHT22;24606;51.992;4.198;2023-07-16T00:28:12;23.00;64.60
38854;DHT22;24606;51.992;4.198;2023-07-16T00:33:13;22.20;67.40
38854;DHT22;24606;51.992;4.198;2023-07-16T00:38:17;22.30;65.90
38854;DHT22;24606;51.992;4.198;2023-07-16T00:43:20;22.80;64.10
38854;DHT22;24606;51.992;4.198;2023-07-16T00:48:22;22.80;64.30
38854;DHT22;24606;51.992;4.198;2023-07-16T00:53:25;23.00;64.20
38854;DHT22;24606;51.992;4.198;2023-07-16T00:58:28;22.30;67.20
38854;DHT22;24606;51.992;4.198;2023-07-16T01:03:30;22.40;66.90
38854;DHT22;24606;51.992;4.198;2023-07-16T01:08:32;21.70;69.80
38854;DHT22;24606;51.992;4.198;2023-07-16T01:13:38;21.90;69.90
38854;DHT22;24606;51.992;4.198;2023-07-16T01:18:40;21.70;69.50
38854;DHT22;24606;51.992;4.198;2023-07-16T01:23:56;22.20;66.90
38854;DHT22;24606;51.992;4.198;2023-07-16T01:29:21;22.30;67.00
38854;DHT22;24606;51.992;4.198;2023-07-16T01:34:30;21.80;71.00
38854;DHT22;24606;51.992;4.198;2023-07-16T01:39:33;22.50;65.60
38854;DHT22;24606;51.992;4.198;2023-07-16T01:44:37;21.40;72.30
38854;DHT22;24606;51.992;4.198;2023-07-16T01:49:39;20.90;75.80
38854;DHT22;24606;51.992;4.198;2023-07-16T01:54:42;21.60;70.10
38854;DHT22;24606;51.992;4.198;2023-07-16T01:59:45;22.20;67.70
38854;DHT22;24606;51.992;4.198;2023-07-16T02:04:47;21.70;69.10
38854;DHT22;24606;51.992;4.198;2023-07-16T02:09:49;21.60;69.40
38854;DHT22;24606;51.992;4.198;2023-07-16T02:14:52;22.00;67.90
38854;DHT22;24606;51.992;4.198;2023-07-16T02:19:54;21.30;71.30
38854;DHT22;24606;51.992;4.198;2023-07-16T02:24:56;21.10;73.30
38854;DHT22;24606;51.992;4.198;2023-07-16T02:29:59;21.50;73.10
38854;DHT22;24606;51.992;4.198;2023-07-16T02:35:01;22.00;68.90
38854;DHT22;24606;51.992;4.198;2023-07-16T02:40:05;21.90;68.70
38854;DHT22;24606;51.992;4.198;2023-07-16T02:45:09;21.30;74.00
38854;DHT22;24606;51.992;4.198;2023-07-16T02:50:11;20.80;76.90
38854;DHT22;24606;51.992;4.198;2023-07-16T02:55:13;21.60;72.50
38854;DHT22;24606;51.992;4.198;2023-07-16T03:15:29;21.90;69.40
38854;DHT22;24606;51.992;4.198;2023-07-16T03:20:31;21.90;71.50
38854;DHT22;24606;51.992;4.198;2023-07-16T03:25:33;21.90;71.80
38854;DHT22;24606;51.992;4.198;2023-07-16T03:30:36;22.80;65.80
38854;DHT22;24606;51.992;4.198;2023-07-16T03:35:38;21.50;77.60
38854;DHT22;24606;51.992;4.198;2023-07-16T03:40:42;21.00;79.20
38854;DHT22;24606;51.992;4.198;2023-07-16T03:45:46;20.10;91.70
38854;DHT22;24606;51.992;4.198;2023-07-16T03:50:48;21.30;83.00
38854;DHT22;24606;51.992;4.198;2023-07-16T03:55:49;21.40;80.50
38854;DHT22;24606;51.992;4.198;2023-07-16T04:00:53;21.60;77.80
38854;DHT22;24606;51.992;4.198;2023-07-16T04:06:01;21.70;75.40
38854;DHT22;24606;51.992;4.198;2023-07-16T04:11:04;21.80;77.50
38854;DHT22;24606;51.992;4.198;2023-07-16T04:16:07;21.70;76.20
38854;DHT22;24606;51.992;4.198;2023-07-16T04:21:09;21.60;76.60
38854;DHT22;24606;51.992;4.198;2023-07-16T04:26:11;21.00;81.50
38854;DHT22;24606;51.992;4.198;2023-07-16T04:31:14;20.50;89.10
38854;DHT22;24606;51.992;4.198;2023-07-16T04:36:16;20.70;86.70
38854;DHT22;24606;51.992;4.198;2023-07-16T04:41:18;21.00;82.30
38854;DHT22;24606;51.992;4.198;2023-07-16T04:46:21;20.90;84.40
38854;DHT22;24606;51.992;4.198;2023-07-16T04:51:23;20.80;82.60
38854;DHT22;24606;51.992;4.198;2023-07-16T04:56:25;20.90;81.10
38854;DHT22;24606;51.992;4.198;2023-07-16T05:01:28;21.30;78.80
38854;DHT22;24606;51.992;4.198;2023-07-16T05:06:30;22.20;70.60
38854;DHT22;24606;51.992;4.198;2023-07-16T05:11:32;21.00;77.90
38854;DHT22;24606;51.992;4.198;2023-07-16T05:16:35;21.90;73.30
38854;DHT22;24606;51.992;4.198;2023-07-16T05:21:37;22.00;71.20
38854;DHT22;24606;51.992;4.198;2023-07-16T05:26:39;21.10;77.10
38854;DHT22;24606;51.992;4.198;2023-07-16T05:31:42;20.40;84.10
38854;DHT22;24606;51.992;4.198;2023-07-16T05:36:44;20.40;85.90
38854;DHT22;24606;51.992;4.198;2023-07-16T05:41:46;21.20;78.40
38854;DHT22;24606;51.992;4.198;2023-07-16T05:46:49;20.90;78.90
38854;DHT22;24606;51.992;4.198;2023-07-16T05:51:51;20.00;90.20
38854;DHT22;24606;51.992;4.198;2023-07-16T05:56:54;20.70;83.50
38854;DHT22;24606;51.992;4.198;2023-07-16T06:01:57;20.10;89.80
38854;DHT22;24606;51.992;4.198;2023-07-16T06:06:59;21.10;77.10
38854;DHT22;24606;51.992;4.198;2023-07-16T06:12:01;20.10;84.20
38854;DHT22;24606;51.992;4.198;2023-07-16T06:17:05;19.00;92.10
38854;DHT22;24606;51.992;4.198;2023-07-16T06:22:07;20.80;80.20
38854;DHT22;24606;51.992;4.198;2023-07-16T06:27:09;20.70;78.00
38854;DHT22;24606;51.992;4.198;2023-07-16T06:32:12;20.40;84.90
38854;DHT22;24606;51.992;4.198;2023-07-16T06:37:14;20.40;84.50
38854;DHT22;24606;51.992;4.198;2023-07-16T06:42:16;20.40;84.10
38854;DHT22;24606;51.992;4.198;2023-07-16T06:47:19;20.90;79.70
38854;DHT22;24606;51.992;4.198;2023-07-16T06:52:22;21.10;77.50
38854;DHT22;24606;51.992;4.198;2023-07-16T06:57:25;21.10;78.00
38854;DHT22;24606;51.992;4.198;2023-07-16T07:02:28;20.50;83.90
38854;DHT22;24606;51.992;4.198;2023-07-16T07:07:30;20.50;85.50
38854;DHT22;24606;51.992;4.198;2023-07-16T07:12:32;19.80;90.70
38854;DHT22;24606;51.992;4.198;2023-07-16T07:17:39;19.70;90.90
38854;DHT22;24606;51.992;4.198;2023-07-16T07:22:43;20.70;80.10
38854;DHT22;24606;51.992;4.198;2023-07-16T07:27:45;20.10;90.60
38854;DHT22;24606;51.992;4.198;2023-07-16T07:32:48;20.00;87.30
38854;DHT22;24606;51.992;4.198;2023-07-16T07:37:50;20.70;81.20
38854;DHT22;24606;51.992;4.198;2023-07-16T07:42:52;20.90;81.40
38854;DHT22;24606;51.992;4.198;2023-07-16T07:47:55;19.80;92.60
38854;DHT22;24606;51.992;4.198;2023-07-16T07:52:57;20.40;90.50
38854;DHT22;24606;51.992;4.198;2023-07-16T07:57:59;20.30;89.90
38854;DHT22;24606;51.992;4.198;2023-07-16T08:03:02;20.60;86.40
38854;DHT22;24606;51.992;4.198;2023-07-16T08:08:04;21.70;78.10
38854;DHT22;24606;51.992;4.198;2023-07-16T08:13:06;21.60;79.10
38854;DHT22;24606;51.992;4.198;2023-07-16T08:18:09;21.10;79.20
38854;DHT22;24606;51.992;4.198;2023-07-16T08:23:12;21.50;78.20
38854;DHT22;24606;51.992;4.198;2023-07-16T08:28:14;20.80;81.80
38854;DHT22;24606;51.992;4.198;2023-07-16T08:33:17;21.90;74.50
38854;DHT22;24606;51.992;4.198;2023-07-16T08:38:19;22.20;72.20
38854;DHT22;24606;51.992;4.198;2023-07-16T08:43:21;22.40;70.30
38854;DHT22;24606;51.992;4.198;2023-07-16T08:48:25;21.30;78.80
38854;DHT22;24606;51.992;4.198;2023-07-16T08:53:29;21.90;75.70
38854;DHT22;24606;51.992;4.198;2023-07-16T08:58:32;20.90;81.70
38854;DHT22;24606;51.992;4.198;2023-07-16T09:03:35;21.00;81.70
38854;DHT22;24606;51.992;4.198;2023-07-16T09:08:37;20.40;86.30
38854;DHT22;24606;51.992;4.198;2023-07-16T09:13:44;20.60;90.70
38854;DHT22;24606;51.992;4.198;2023-07-16T09:18:47;21.00;85.60
38854;DHT22;24606;51.992;4.198;2023-07-16T09:23:49;21.70;75.80
38854;DHT22;24606;51.992;4.198;2023-07-16T09:28:51;21.50;77.50
38854;DHT22;24606;51.992;4.198;2023-07-16T09:33:57;22.10;74.80
38854;DHT22;24606;51.992;4.198;2023-07-16T09:38:59;22.50;71.30
38854;DHT22;24606;51.992;4.198;2023-07-16T09:44:01;21.40;78.90
38854;DHT22;24606;51.992;4.198;2023-07-16T09:49:05;22.70;71.00
38854;DHT22;24606;51.992;4.198;2023-07-16T09:54:06;22.80;69.30
38854;DHT22;24606;51.992;4.198;2023-07-16T09:59:09;22.50;69.00
38854;DHT22;24606;51.992;4.198;2023-07-16T10:04:15;21.90;68.10
38854;DHT22;24606;51.992;4.198;2023-07-16T10:09:32;22.60;68.00
38854;DHT22;24606;51.992;4.198;2023-07-16T10:14:39;21.70;69.60
38854;DHT22;24606;51.992;4.198;2023-07-16T10:19:55;20.80;77.00
38854;DHT22;24606;51.992;4.198;2023-07-16T10:24:57;20.90;70.70
38854;DHT22;24606;51.992;4.198;2023-07-16T10:30:00;20.90;70.80
38854;DHT22;24606;51.992;4.198;2023-07-16T10:35:06;21.40;69.70
38854;DHT22;24606;51.992;4.198;2023-07-16T10:40:11;21.60;66.60
38854;DHT22;24606;51.992;4.198;2023-07-16T10:45:13;21.10;72.80
38854;DHT22;24606;51.992;4.198;2023-07-16T10:50:19;20.40;82.00
38854;DHT22;24606;51.992;4.198;2023-07-16T10:55:23;20.60;75.40
38854;DHT22;24606;51.992;4.198;2023-07-16T11:00:25;20.80;76.90
38854;DHT22;24606;51.992;4.198;2023-07-16T11:05:28;20.50;79.60
38854;DHT22;24606;51.992;4.198;2023-07-16T11:10:30;21.10;73.50
38854;DHT22;24606;51.992;4.198;2023-07-16T11:15:32;22.10;66.30
38854;DHT22;24606;51.992;4.198;2023-07-16T11:20:36;20.90;71.50
38854;DHT22;24606;51.992;4.198;2023-07-16T11:25:38;21.30;70.30
38854;DHT22;24606;51.992;4.198;2023-07-16T11:30:40;21.40;63.80
38854;DHT22;24606;51.992;4.198;2023-07-16T11:35:43;21.20;63.20
38854;DHT22;24606;51.992;4.198;2023-07-16T11:40:45;21.10;70.60
38854;DHT22;24606;51.992;4.198;2023-07-16T11:45:48;20.90;72.00
38854;DHT22;24606;51.992;4.198;2023-07-16T11:50:51;21.80;67.80
38854;DHT22;24606;51.992;4.198;2023-07-16T11:55:53;21.50;69.10
38854;DHT22;24606;51.992;4.198;2023-07-16T12:00:55;21.40;67.70
38854;DHT22;24606;51.992;4.198;2023-07-16T12:05:58;22.20;64.90
38854;DHT22;24606;51.992;4.198;2023-07-16T12:11:00;22.20;63.70
38854;DHT22;24606;51.992;4.198;2023-07-16T12:16:02;22.00;67.40
38854;DHT22;24606;51.992;4.198;2023-07-16T12:21:05;22.10;70.80
38854;DHT22;24606;51.992;4.198;2023-07-16T12:26:07;22.20;65.20
38854;DHT22;24606;51.992;4.198;2023-07-16T12:31:09;22.10;61.60
38854;DHT22;24606;51.992;4.198;2023-07-16T12:36:13;22.20;65.40
38854;DHT22;24606;51.992;4.198;2023-07-16T12:41:15;22.70;60.60
38854;DHT22;24606;51.992;4.198;2023-07-16T12:46:17;22.60;61.70
38854;DHT22;24606;51.992;4.198;2023-07-16T12:51:20;22.10;66.70
38854;DHT22;24606;51.992;4.198;2023-07-16T12:56:22;22.80;65.80
38854;DHT22;24606;51.992;4.198;2023-07-16T13:01:24;22.90;65.70
38854;DHT22;24606;51.992;4.198;2023-07-16T13:06:27;23.10;66.60
38854;DHT22;24606;51.992;4.198;2023-07-16T13:11:29;22.80;67.60
38854;DHT22;24606;51.992;4.198;2023-07-16T13:16:32;23.30;65.10
38854;DHT22;24606;51.992;4.198;2023-07-16T13:21:35;23.60;65.80
38854;DHT22;24606;51.992;4.198;2023-07-16T13:26:37;23.70;65.40
38854;DHT22;24606;51.992;4.198;2023-07-16T13:31:38;23.00;70.50
38854;DHT22;24606;51.992;4.198;2023-07-16T13:36:41;23.70;65.70
38854;DHT22;24606;51.992;4.198;2023-07-16T13:41:43;23.70;65.70
38854;DHT22;24606;51.992;4.198;2023-07-16T13:46:45;23.80;63.40
38854;DHT22;24606;51.992;4.198;2023-07-16T13:51:48;24.10;64.20
38854;DHT22;24606;51.992;4.198;2023-07-16T13:56:50;23.60;66.50
38854;DHT22;24606;51.992;4.198;2023-07-16T14:01:59;23.70;66.30
38854;DHT22;24606;51.992;4.198;2023-07-16T14:07:03;23.60;66.30
38854;DHT22;24606;51.992;4.198;2023-07-16T14:12:05;23.60;65.00
38854;DHT22;24606;51.992;4.198;2023-07-16T14:17:07;23.40;68.20
38854;DHT22;24606;51.992;4.198;2023-07-16T14:22:11;23.40;66.70
38854;DHT22;24606;51.992;4.198;2023-07-16T14:27:13;23.30;68.20
38854;DHT22;24606;51.992;4.198;2023-07-16T14:32:15;24.30;65.80
38854;DHT22;24606;51.992;4.198;2023-07-16T14:37:18;24.20;65.00
38854;DHT22;24606;51.992;4.198;2023-07-16T14:42:20;23.80;65.60
38854;DHT22;24606;51.992;4.198;2023-07-16T14:47:22;24.60;61.80
38854;DHT22;24606;51.992;4.198;2023-07-16T14:52:25;24.50;61.70
38854;DHT22;24606;51.992;4.198;2023-07-16T14:57:27;24.70;61.50
38854;DHT22;24606;51.992;4.198;2023-07-16T15:02:29;24.40;62.90
38854;DHT22;24606;51.992;4.198;2023-07-16T15:07:32;24.80;64.50
38854;DHT22;24606;51.992;4.198;2023-07-16T15:12:35;24.80;61.50
38854;DHT22;24606;51.992;4.198;2023-07-16T15:17:36;24.60;60.80
38854;DHT22;24606;51.992;4.198;2023-07-16T15:22:39;24.40;62.60
38854;DHT22;24606;51.992;4.198;2023-07-16T15:27:41;24.90;60.40
38854;DHT22;24606;51.992;4.198;2023-07-16T15:32:43;25.50;54.30
38854;DHT22;24606;51.992;4.198;2023-07-16T15:37:46;24.80;56.50
38854;DHT22;24606;51.992;4.198;2023-07-16T15:42:48;24.50;54.20
38854;DHT22;24606;51.992;4.198;2023-07-16T15:47:52;23.60;55.50
38854;DHT22;24606;51.992;4.198;2023-07-16T15:52:58;24.30;57.10
38854;DHT22;24606;51.992;4.198;2023-07-16T15:58:01;23.60;53.90
38854;DHT22;24606;51.992;4.198;2023-07-16T16:03:03;23.60;56.60
38854;DHT22;24606;51.992;4.198;2023-07-16T16:08:14;23.90;58.00
38854;DHT22;24606;51.992;4.198;2023-07-16T16:13:16;24.50;60.70
38854;DHT22;24606;51.992;4.198;2023-07-16T16:18:19;23.80;62.70
38854;DHT22;24606;51.992;4.198;2023-07-16T16:23:22;24.20;58.70
38854;DHT22;24606;51.992;4.198;2023-07-16T16:28:24;24.70;60.40
38854;DHT22;24606;51.992;4.198;2023-07-16T16:33:26;25.90;56.40
38854;DHT22;24606;51.992;4.198;2023-07-16T16:38:29;25.90;58.80
38854;DHT22;24606;51.992;4.198;2023-07-16T16:43:31;25.10;57.70
38854;DHT22;24606;51.992;4.198;2023-07-16T16:48:32;25.10;58.70
38854;DHT22;24606;51.992;4.198;2023-07-16T16:53:38;24.20;58.50
38854;DHT22;24606;51.992;4.198;2023-07-16T16:58:41;23.50;60.50
38854;DHT22;24606;51.992;4.198;2023-07-16T17:03:43;23.90;62.40
38854;DHT22;24606;51.992;4.198;2023-07-16T17:08:46;24.50;60.10
38854;DHT22;24606;51.992;4.198;2023-07-16T17:13:48;24.90;61.20
38854;DHT22;24606;51.992;4.198;2023-07-16T17:18:49;23.60;59.50
38854;DHT22;24606;51.992;4.198;2023-07-16T17:23:52;23.20;60.90
38854;DHT22;24606;51.992;4.198;2023-07-16T17:28:54;23.90;64.50
38854;DHT22;24606;51.992;4.198;2023-07-16T17:33:56;23.40;66.70
38854;DHT22;24606;51.992;4.198;2023-07-16T17:38:59;22.80;63.40
38854;DHT22;24606;51.992;4.198;2023-07-16T17:44:02;23.60;65.70
38854;DHT22;24606;51.992;4.198;2023-07-16T17:49:04;22.40;70.30
38854;DHT22;24606;51.992;4.198;2023-07-16T17:54:07;22.30;71.50
38854;DHT22;24606;51.992;4.198;2023-07-16T17:59:09;22.80;70.70
38854;DHT22;24606;51.992;4.198;2023-07-16T18:04:11;22.60;70.30
38854;DHT22;24606;51.992;4.198;2023-07-16T18:09:14;24.30;65.60
38854;DHT22;24606;51.992;4.198;2023-07-16T18:14:16;23.50;66.90
38854;DHT22;24606;51.992;4.198;2023-07-16T18:19:18;22.50;70.40
38854;DHT22;24606;51.992;4.198;2023-07-16T18:24:21;22.10;71.90
38854;DHT22;24606;51.992;4.198;2023-07-16T18:29:23;22.80;73.20
38854;DHT22;24606;51.992;4.198;2023-07-16T18:34:25;22.40;69.00
38854;DHT22;24606;51.992;4.198;2023-07-16T18:39:29;21.80;75.60
38854;DHT22;24606;51.992;4.198;2023-07-16T18:44:31;22.20;77.80
38854;DHT22;24606;51.992;4.198;2023-07-16T18:49:33;23.20;69.00
38854;DHT22;24606;51.992;4.198;2023-07-16T18:54:37;21.90;79.70
38854;DHT22;24606;51.992;4.198;2023-07-16T18:59:39;22.70;75.10
38854;DHT22;24606;51.992;4.198;2023-07-16T19:04:41;22.10;78.90
38854;DHT22;24606;51.992;4.198;2023-07-16T19:09:45;21.80;79.70
38854;DHT22;24606;51.992;4.198;2023-07-16T19:14:46;21.80;85.10
38854;DHT22;24606;51.992;4.198;2023-07-16T19:19:48;22.60;75.70
38854;DHT22;24606;51.992;4.198;2023-07-16T19:24:52;22.90;78.20
38854;DHT22;24606;51.992;4.198;2023-07-16T19:29:54;21.40;88.10
38854;DHT22;24606;51.992;4.198;2023-07-16T19:34:56;20.70;92.50
38854;DHT22;24606;51.992;4.198;2023-07-16T19:39:59;21.30;91.40
38854;DHT22;24606;51.992;4.198;2023-07-16T19:45:04;21.30;90.70
38854;DHT22;24606;51.992;4.198;2023-07-16T19:50:07;22.20;83.80
38854;DHT22;24606;51.992;4.198;2023-07-16T19:55:10;20.30;94.00
38854;DHT22;24606;51.992;4.198;2023-07-16T20:00:13;20.90;92.70
38854;DHT22;24606;51.992;4.198;2023-07-16T20:05:16;21.20;91.70
38854;DHT22;24606;51.992;4.198;2023-07-16T20:10:20;20.10;95.70
38854;DHT22;24606;51.992;4.198;2023-07-16T20:15:22;21.20;90.60
38854;DHT22;24606;51.992;4.198;2023-07-16T20:20:24;19.60;96.90
38854;DHT22;24606;51.992;4.198;2023-07-16T20:25:27;21.40;90.50
38854;DHT22;24606;51.992;4.198;2023-07-16T20:30:29;20.60;92.50
38854;DHT22;24606;51.992;4.198;2023-07-16T20:35:31;20.10;94.60
38854;DHT22;24606;51.992;4.198;2023-07-16T20:40:35;20.50;91.80
38854;DHT22;24606;51.992;4.198;2023-07-16T20:45:37;20.60;91.20
38854;DHT22;24606;51.992;4.198;2023-07-16T20:50:45;21.20;86.30
38854;DHT22;24606;51.992;4.198;2023-07-16T20:55:48;20.60;84.90
38854;DHT22;24606;51.992;4.198;2023-07-16T21:00:50;20.00;89.70
38854;DHT22;24606;51.992;4.198;2023-07-16T21:05:52;20.30;91.40
38854;DHT22;24606;51.992;4.198;2023-07-16T21:10:55;20.30;85.50
38854;DHT22;24606;51.992;4.198;2023-07-16T21:15:57;20.50;81.70
38854;DHT22;24606;51.992;4.198;2023-07-16T21:20:59;20.30;87.10
38854;DHT22;24606;51.992;4.198;2023-07-16T21:26:02;20.90;79.60
38854;DHT22;24606;51.992;4.198;2023-07-16T21:31:04;20.70;83.10
38854;DHT22;24606;51.992;4.198;2023-07-16T21:36:06;20.10;88.00
38854;DHT22;24606;51.992;4.198;2023-07-16T21:41:11;19.30;94.40
38854;DHT22;24606;51.992;4.198;2023-07-16T21:46:13;21.10;83.50
38854;DHT22;24606;51.992;4.198;2023-07-16T21:51:16;20.70;90.00
38854;DHT22;24606;51.992;4.198;2023-07-16T21:56:19;19.60;94.00
38854;DHT22;24606;51.992;4.198;2023-07-16T22:01:22;21.70;85.40
38854;DHT22;24606;51.992;4.198;2023-07-16T22:06:24;19.50;96.70
38854;DHT22;24606;51.992;4.198;2023-07-16T22:11:27;21.20;85.60
38854;DHT22;24606;51.992;4.198;2023-07-16T22:16:29;22.10;78.80
38854;DHT22;24606;51.992;4.198;2023-07-16T22:21:31;21.80;79.00
38854;DHT22;24606;51.992;4.198;2023-07-16T22:26:34;21.00;86.10
38854;DHT22;24606;51.992;4.198;2023-07-16T22:31:36;21.40;87.40
38854;DHT22;24606;51.992;4.198;2023-07-16T22:36:38;22.10;77.00
38854;DHT22;24606;51.992;4.198;2023-07-16T22:41:41;21.90;81.70
38854;DHT22;24606;51.992;4.198;2023-07-16T22:46:43;23.00;70.20
38854;DHT22;24606;51.992;4.198;2023-07-16T22:51:45;22.50;74.50
38854;DHT22;24606;51.992;4.198;2023-07-16T22:56:48;20.80;90.70
38854;DHT22;24606;51.992;4.198;2023-07-16T23:01:50;20.80;88.70
38854;DHT22;24606;51.992;4.198;2023-07-16T23:06:53;21.10;87.50
38854;DHT22;24606;51.992;4.198;2023-07-16T23:11:56;21.40;85.50
38854;DHT22;24606;51.992;4.198;2023-07-16T23:16:58;21.20;82.60
38854;DHT22;24606;51.992;4.198;2023-07-16T23:22:00;20.50;91.50
38854;DHT22;24606;51.992;4.198;2023-07-16T23:27:06;20.50;91.20
38854;DHT22;24606;51.992;4.198;2023-07-16T23:32:08;21.40;85.80
38854;DHT22;24606;51.992;4.198;2023-07-16T23:37:10;22.10;74.90
38854;DHT22;24606;51.992;4.198;2023-07-16T23:42:13;20.70;88.50
38854;DHT22;24606;51.992;4.198;2023-07-16T23:47:15;20.70;86.20
38854;DHT22;24606;51.992;4.198;2023-07-16T23:52:16;21.60;79.60
38854;DHT22;24606;51.992;4.198;2023-07-16T23:57:20;19.50;93.90
